createdAt,value
2019-02-02T00:00:54.524Z,28.54
2019-02-02T00:01:33.381Z,28.54
2019-02-02T00:02:15.070Z,28.54
2019-02-02T00:02:51.288Z,28.54
2019-02-02T00:03:29.154Z,28.54
2019-02-02T00:04:05.434Z,28.54
2019-02-02T00:04:41.574Z,28.52
2019-02-02T00:05:17.794Z,28.54
2019-02-02T00:05:54.043Z,28.54
2019-02-02T00:06:30.209Z,28.54
2019-02-02T00:07:06.467Z,28.55
2019-02-02T00:07:42.604Z,28.56
2019-02-02T00:08:18.578Z,28.55
2019-02-02T00:08:54.615Z,28.57
2019-02-02T00:09:30.670Z,28.57
2019-02-02T00:10:07.173Z,28.59
2019-02-02T00:10:43.170Z,28.59
2019-02-02T00:11:19.335Z,28.60
2019-02-02T00:11:55.395Z,28.61
2019-02-02T00:12:31.563Z,28.60
2019-02-02T00:13:07.716Z,28.62
2019-02-02T00:13:43.659Z,28.58
2019-02-02T00:14:19.904Z,28.58
2019-02-02T00:14:55.784Z,28.64
2019-02-02T00:15:31.838Z,28.64
2019-02-02T00:16:08.203Z,28.65
2019-02-02T00:16:44.302Z,28.66
2019-02-02T00:17:20.625Z,28.66
2019-02-02T00:17:56.879Z,28.66
2019-02-02T00:18:33.081Z,28.65
2019-02-02T00:19:09.174Z,28.67
2019-02-02T00:19:45.733Z,28.67
2019-02-02T00:20:21.801Z,28.69
2019-02-02T00:20:57.930Z,28.69
2019-02-02T00:21:33.996Z,28.68
2019-02-02T00:22:09.960Z,28.68
2019-02-02T00:22:45.995Z,28.68
2019-02-02T00:23:22.165Z,28.69
2019-02-02T00:23:58.311Z,28.69
2019-02-02T00:24:34.464Z,28.70
2019-02-02T00:25:10.629Z,28.71
2019-02-02T00:25:46.663Z,28.73
2019-02-02T00:26:22.643Z,28.75
2019-02-02T00:26:58.586Z,28.77
2019-02-02T00:27:41.474Z,28.77
2019-02-02T00:28:12.638Z,28.76
2019-02-02T00:28:48.679Z,28.80
2019-02-02T00:29:24.768Z,28.82
2019-02-02T00:30:00.917Z,28.82
2019-02-02T00:30:37.109Z,28.84
2019-02-02T00:31:13.190Z,28.87
2019-02-02T00:31:49.357Z,28.90
2019-02-02T00:32:25.448Z,28.90
2019-02-02T00:33:01.681Z,28.91
2019-02-02T00:33:37.809Z,28.90
2019-02-02T00:34:14.026Z,28.98
2019-02-02T00:34:50.040Z,28.98
2019-02-02T00:35:26.184Z,28.99
2019-02-02T00:36:03.860Z,29.02
2019-02-02T00:36:39.947Z,28.99
2019-02-02T00:37:16.114Z,29.05
2019-02-02T00:37:52.072Z,29.02
2019-02-02T00:38:28.094Z,29.04
2019-02-02T00:39:04.821Z,29.10
2019-02-02T00:39:41.050Z,29.11
2019-02-02T00:40:17.297Z,29.13
2019-02-02T00:40:53.609Z,29.16
2019-02-02T00:41:29.880Z,29.17
2019-02-02T00:42:06.036Z,29.20
2019-02-02T00:42:42.053Z,29.23
2019-02-02T00:43:18.081Z,29.23
2019-02-02T00:43:54.308Z,29.27
2019-02-02T00:44:30.270Z,29.27
2019-02-02T00:45:07.485Z,29.29
2019-02-02T00:45:43.541Z,29.31
2019-02-02T00:46:19.714Z,29.31
2019-02-02T00:46:56.030Z,29.34
2019-02-02T00:47:32.316Z,29.35
2019-02-02T00:48:08.334Z,29.33
2019-02-02T00:48:44.547Z,29.39
2019-02-02T00:49:20.514Z,29.41
2019-02-02T00:49:56.437Z,29.38
2019-02-02T00:50:32.455Z,29.43
2019-02-02T00:51:08.730Z,29.44
2019-02-02T00:51:44.788Z,29.44
2019-02-02T00:52:20.749Z,29.47
2019-02-02T00:52:56.939Z,29.47
2019-02-02T00:53:32.882Z,29.45
2019-02-02T00:54:08.906Z,29.45
2019-02-02T00:54:45.041Z,29.52
2019-02-02T00:55:21.264Z,29.56
2019-02-02T00:55:57.270Z,29.56
2019-02-02T00:56:33.302Z,29.58
2019-02-02T00:57:09.348Z,29.58
2019-02-02T00:57:53.074Z,29.62
2019-02-02T00:58:23.294Z,29.62
2019-02-02T00:58:59.371Z,29.62
2019-02-02T00:59:35.437Z,29.62
2019-02-02T01:00:13.825Z,29.56
2019-02-02T01:00:49.958Z,29.67
2019-02-02T01:01:25.965Z,29.67
2019-02-02T01:02:02.299Z,29.62
2019-02-02T01:02:38.502Z,29.62
2019-02-02T01:03:14.753Z,29.68
2019-02-02T01:03:50.822Z,29.66
2019-02-02T01:04:27.177Z,29.68
2019-02-02T01:05:03.229Z,29.68
2019-02-02T01:05:39.370Z,29.65
2019-02-02T01:06:15.473Z,29.65
2019-02-02T01:06:51.694Z,29.73
2019-02-02T01:07:27.839Z,29.73
2019-02-02T01:08:03.944Z,29.69
2019-02-02T01:08:40.295Z,29.75
2019-02-02T01:09:26.664Z,29.71
2019-02-02T01:10:02.874Z,29.71
2019-02-02T01:10:39.287Z,29.69
2019-02-02T01:11:15.524Z,29.75
2019-02-02T01:11:51.620Z,29.71
2019-02-02T01:12:27.594Z,29.71
2019-02-02T01:13:03.979Z,29.78
2019-02-02T01:13:40.035Z,29.78
2019-02-02T01:14:16.209Z,29.78
2019-02-02T01:14:52.312Z,29.75
2019-02-02T01:15:28.511Z,29.75
2019-02-02T01:16:04.553Z,29.77
2019-02-02T01:16:40.667Z,29.83
2019-02-02T01:17:16.718Z,29.83
2019-02-02T01:17:52.813Z,29.85
2019-02-02T01:18:29.081Z,29.85
2019-02-02T01:19:05.280Z,29.84
2019-02-02T01:19:41.274Z,29.84
2019-02-02T01:20:17.885Z,29.87
2019-02-02T01:20:53.952Z,29.87
2019-02-02T01:21:30.326Z,29.93
2019-02-02T01:22:06.687Z,29.90
2019-02-02T01:22:42.814Z,29.95
2019-02-02T01:23:18.997Z,29.94
2019-02-02T01:23:55.392Z,30.01
2019-02-02T01:24:31.422Z,30.03
2019-02-02T01:25:07.936Z,30.04
2019-02-02T01:25:44.225Z,30.07
2019-02-02T01:26:20.278Z,30.10
2019-02-02T01:26:56.417Z,30.10
2019-02-02T01:27:32.666Z,30.11
2019-02-02T01:28:08.846Z,30.15
2019-02-02T01:28:45.011Z,30.17
2019-02-02T01:29:21.321Z,30.18
2019-02-02T01:29:57.517Z,30.20
2019-02-02T01:30:33.604Z,30.23
2019-02-02T01:31:09.746Z,30.25
2019-02-02T01:31:45.946Z,30.25
2019-02-02T01:32:22.280Z,30.27
2019-02-02T01:32:58.472Z,30.28
2019-02-02T01:33:34.619Z,30.28
2019-02-02T01:34:10.646Z,30.28
2019-02-02T01:34:46.661Z,30.34
2019-02-02T01:35:22.935Z,30.33
2019-02-02T01:35:59.009Z,30.34
2019-02-02T01:36:35.139Z,30.41
2019-02-02T01:37:11.179Z,30.45
2019-02-02T01:37:47.365Z,30.45
2019-02-02T01:38:23.592Z,30.49
2019-02-02T01:38:59.740Z,30.49
2019-02-02T01:39:35.752Z,30.49
2019-02-02T01:40:14.534Z,30.57
2019-02-02T01:40:50.690Z,30.58
2019-02-02T01:41:26.750Z,30.59
2019-02-02T01:42:02.869Z,30.61
2019-02-02T01:42:39.127Z,30.63
2019-02-02T01:43:15.283Z,30.63
2019-02-02T01:43:51.343Z,30.67
2019-02-02T01:44:27.742Z,30.69
2019-02-02T01:45:03.724Z,30.70
2019-02-02T01:45:39.655Z,30.72
2019-02-02T01:46:15.666Z,30.74
2019-02-02T01:46:51.591Z,30.75
2019-02-02T01:47:27.590Z,30.77
2019-02-02T01:48:03.649Z,30.79
2019-02-02T01:48:39.954Z,30.80
2019-02-02T01:49:16.011Z,30.82
2019-02-02T01:49:51.973Z,30.83
2019-02-02T01:50:28.182Z,30.83
2019-02-02T01:51:04.337Z,30.85
2019-02-02T01:51:40.507Z,30.87
2019-02-02T01:52:16.747Z,30.89
2019-02-02T01:52:52.801Z,30.92
2019-02-02T01:53:28.926Z,30.93
2019-02-02T01:54:05.008Z,30.97
2019-02-02T01:54:41.149Z,30.99
2019-02-02T01:55:17.775Z,31.01
2019-02-02T01:55:53.896Z,31.03
2019-02-02T01:56:29.849Z,31.05
2019-02-02T01:57:06.035Z,31.07
2019-02-02T01:57:42.497Z,31.10
2019-02-02T01:58:18.510Z,31.11
2019-02-02T01:58:54.610Z,31.14
2019-02-02T01:59:30.633Z,31.19
2019-02-02T02:00:07.532Z,31.21
2019-02-02T02:00:43.729Z,31.23
2019-02-02T02:01:20.075Z,31.27
2019-02-02T02:01:56.357Z,31.29
2019-02-02T02:02:32.392Z,31.30
2019-02-02T02:03:08.539Z,31.34
2019-02-02T02:03:44.804Z,31.38
2019-02-02T02:04:21.008Z,31.42
2019-02-02T02:04:57.260Z,31.46
2019-02-02T02:05:33.309Z,31.50
2019-02-02T02:06:09.359Z,31.52
2019-02-02T02:06:45.461Z,31.56
2019-02-02T02:07:21.375Z,31.58
2019-02-02T02:07:57.359Z,31.62
2019-02-02T02:08:33.443Z,31.65
2019-02-02T02:09:10.321Z,31.66
2019-02-02T02:09:46.348Z,31.67
2019-02-02T02:10:22.704Z,31.69
2019-02-02T02:10:58.992Z,31.72
2019-02-02T02:11:35.188Z,31.74
2019-02-02T02:12:11.229Z,31.77
2019-02-02T02:12:47.407Z,31.75
2019-02-02T02:13:23.460Z,31.74
2019-02-02T02:13:59.512Z,31.75
2019-02-02T02:14:35.492Z,31.75
2019-02-02T02:15:13.811Z,31.73
2019-02-02T02:15:49.859Z,31.72
2019-02-02T02:16:25.817Z,31.72
2019-02-02T02:17:01.839Z,31.71
2019-02-02T02:17:37.874Z,31.72
2019-02-02T02:18:13.945Z,31.72
2019-02-02T02:18:50.001Z,31.71
2019-02-02T02:19:26.027Z,31.71
2019-02-02T02:20:02.119Z,31.70
2019-02-02T02:20:38.060Z,31.69
2019-02-02T02:21:14.267Z,31.69
2019-02-02T02:21:50.251Z,31.71
2019-02-02T02:22:26.274Z,31.74
2019-02-02T02:23:02.275Z,31.75
2019-02-02T02:23:38.348Z,31.79
2019-02-02T02:24:14.468Z,31.83
2019-02-02T02:24:50.584Z,31.87
2019-02-02T02:25:26.531Z,31.92
2019-02-02T02:26:02.487Z,31.94
2019-02-02T02:26:38.686Z,31.97
2019-02-02T02:27:14.930Z,31.98
2019-02-02T02:27:51.098Z,32.01
2019-02-02T02:28:28.433Z,32.01
2019-02-02T02:29:04.729Z,32.01
2019-02-02T02:29:41.944Z,32.02
2019-02-02T02:30:22.315Z,32.03
2019-02-02T02:30:58.336Z,32.04
2019-02-02T02:31:34.264Z,32.05
2019-02-02T02:32:10.351Z,32.08
2019-02-02T02:32:46.450Z,32.13
2019-02-02T02:33:22.456Z,32.14
2019-02-02T02:33:58.677Z,32.20
2019-02-02T02:34:34.620Z,32.21
2019-02-02T02:35:10.712Z,32.24
2019-02-02T02:35:47.582Z,32.27
2019-02-02T02:36:23.562Z,32.30
2019-02-02T02:36:59.656Z,32.30
2019-02-02T02:37:35.719Z,32.28
2019-02-02T02:38:11.675Z,32.26
2019-02-02T02:38:47.745Z,32.26
2019-02-02T02:39:23.972Z,32.27
2019-02-02T02:40:00.030Z,32.29
2019-02-02T02:40:36.316Z,32.31
2019-02-02T02:41:12.282Z,32.32
2019-02-02T02:41:48.271Z,32.33
2019-02-02T02:42:24.216Z,32.33
2019-02-02T02:43:00.137Z,32.32
2019-02-02T02:43:36.123Z,32.32
2019-02-02T02:44:12.434Z,32.33
2019-02-02T02:44:48.458Z,32.34
2019-02-02T02:45:24.680Z,32.35
2019-02-02T02:46:00.651Z,32.39
2019-02-02T02:46:36.724Z,32.39
2019-02-02T02:47:12.921Z,32.42
2019-02-02T02:47:49.259Z,32.42
2019-02-02T02:48:25.536Z,32.43
2019-02-02T02:49:01.516Z,32.42
2019-02-02T02:49:37.628Z,32.40
2019-02-02T02:50:15.625Z,32.38
2019-02-02T02:50:51.526Z,32.37
2019-02-02T02:51:27.516Z,32.36
2019-02-02T02:52:03.691Z,32.34
2019-02-02T02:52:39.847Z,32.31
2019-02-02T02:53:16.079Z,32.31
2019-02-02T02:53:52.144Z,32.30
2019-02-02T02:54:28.174Z,32.29
2019-02-02T02:55:05.965Z,32.30
2019-02-02T02:55:42.135Z,32.31
2019-02-02T02:56:18.262Z,32.30
2019-02-02T02:56:54.543Z,32.31
2019-02-02T02:57:30.689Z,32.31
2019-02-02T02:58:07.048Z,32.30
2019-02-02T02:58:42.993Z,32.30
2019-02-02T02:59:19.039Z,32.31
2019-02-02T02:59:55.128Z,32.28
2019-02-02T03:00:31.251Z,32.30
2019-02-02T03:01:07.405Z,32.31
2019-02-02T03:01:43.476Z,32.32
2019-02-02T03:02:19.464Z,32.35
2019-02-02T03:02:55.698Z,32.35
2019-02-02T03:03:31.967Z,32.38
2019-02-02T03:04:08.182Z,32.38
2019-02-02T03:04:44.371Z,32.41
2019-02-02T03:05:20.717Z,32.45
2019-02-02T03:05:56.884Z,32.48
2019-02-02T03:06:33.049Z,32.50
2019-02-02T03:07:09.049Z,32.51
2019-02-02T03:07:45.153Z,32.54
2019-02-02T03:08:21.393Z,32.55
2019-02-02T03:08:57.396Z,32.57
2019-02-02T03:09:33.424Z,32.58
2019-02-02T03:10:11.246Z,32.59
2019-02-02T03:10:47.364Z,32.59
2019-02-02T03:11:23.418Z,32.61
2019-02-02T03:11:59.662Z,32.57
2019-02-02T03:12:35.564Z,32.61
2019-02-02T03:13:11.571Z,32.58
2019-02-02T03:13:47.826Z,32.58
2019-02-02T03:14:24.459Z,32.57
2019-02-02T03:15:00.473Z,32.58
2019-02-02T03:15:36.577Z,32.56
2019-02-02T03:16:12.639Z,32.56
2019-02-02T03:16:48.736Z,32.58
2019-02-02T03:17:24.982Z,32.59
2019-02-02T03:18:01.127Z,32.61
2019-02-02T03:18:37.419Z,32.63
2019-02-02T03:19:13.500Z,32.64
2019-02-02T03:19:49.558Z,32.66
2019-02-02T03:20:25.510Z,32.67
2019-02-02T03:21:01.760Z,32.70
2019-02-02T03:21:37.970Z,32.73
2019-02-02T03:22:14.218Z,32.75
2019-02-02T03:22:50.381Z,32.77
2019-02-02T03:23:26.442Z,32.78
2019-02-02T03:24:02.517Z,32.79
2019-02-02T03:24:38.659Z,32.82
2019-02-02T03:25:16.924Z,32.82
2019-02-02T03:25:52.995Z,32.83
2019-02-02T03:26:29.046Z,32.84
2019-02-02T03:27:05.386Z,32.86
2019-02-02T03:27:41.578Z,32.86
2019-02-02T03:28:17.716Z,32.87
2019-02-02T03:28:53.947Z,32.89
2019-02-02T03:29:30.142Z,32.91
2019-02-02T03:30:06.913Z,32.91
2019-02-02T03:30:43.002Z,32.92
2019-02-02T03:31:19.056Z,32.93
2019-02-02T03:31:55.243Z,32.93
2019-02-02T03:32:31.395Z,32.94
2019-02-02T03:33:07.477Z,32.96
2019-02-02T03:33:43.756Z,32.98
2019-02-02T03:34:19.819Z,33.00
2019-02-02T03:34:56.147Z,33.02
2019-02-02T03:35:32.297Z,33.03
2019-02-02T03:36:08.327Z,33.07
2019-02-02T03:36:44.490Z,33.07
2019-02-02T03:37:20.635Z,33.06
2019-02-02T03:37:56.674Z,33.06
2019-02-02T03:38:32.569Z,33.09
2019-02-02T03:39:12.649Z,33.09
2019-02-02T03:39:48.772Z,33.12
2019-02-02T03:40:25.400Z,33.14
2019-02-02T03:41:01.420Z,33.18
2019-02-02T03:41:37.462Z,33.21
2019-02-02T03:42:13.556Z,33.23
2019-02-02T03:42:49.928Z,33.24
2019-02-02T03:43:26.206Z,33.29
2019-02-02T03:44:02.363Z,33.33
2019-02-02T03:44:38.540Z,33.38
2019-02-02T03:45:15.844Z,33.44
2019-02-02T03:45:52.006Z,33.46
2019-02-02T03:46:27.951Z,33.49
2019-02-02T03:47:03.972Z,33.53
2019-02-02T03:47:40.052Z,33.56
2019-02-02T03:48:15.953Z,33.57
2019-02-02T03:48:51.894Z,33.58
2019-02-02T03:49:27.912Z,33.60
2019-02-02T03:50:03.920Z,33.55
2019-02-02T03:50:39.898Z,33.60
2019-02-02T03:51:15.961Z,33.59
2019-02-02T03:51:52.071Z,33.62
2019-02-02T03:52:28.158Z,33.63
2019-02-02T03:53:04.063Z,33.66
2019-02-02T03:53:41.384Z,33.66
2019-02-02T03:54:17.613Z,33.70
2019-02-02T03:54:53.720Z,33.73
2019-02-02T03:55:29.811Z,33.74
2019-02-02T03:56:06.074Z,33.75
2019-02-02T03:56:42.241Z,33.79
2019-02-02T03:57:18.513Z,33.81
2019-02-02T03:57:54.750Z,33.86
2019-02-02T03:58:30.881Z,33.88
2019-02-02T03:59:07.281Z,33.90
2019-02-02T03:59:43.454Z,33.94
2019-02-02T04:00:21.151Z,33.97
2019-02-02T04:00:57.446Z,34.01
2019-02-02T04:01:33.585Z,34.05
2019-02-02T04:02:09.616Z,34.10
2019-02-02T04:02:45.728Z,34.13
2019-02-02T04:03:21.808Z,34.15
2019-02-02T04:03:57.998Z,34.18
2019-02-02T04:04:34.294Z,34.21
2019-02-02T04:05:13.177Z,34.25
2019-02-02T04:05:49.604Z,34.29
2019-02-02T04:06:26.202Z,34.32
2019-02-02T04:07:02.768Z,34.33
2019-02-02T04:07:39.185Z,34.39
2019-02-02T04:08:15.379Z,34.43
2019-02-02T04:08:51.569Z,34.47
2019-02-02T04:09:27.569Z,34.52
2019-02-02T04:10:03.661Z,34.51
2019-02-02T04:10:39.652Z,34.54
2019-02-02T04:11:15.679Z,34.55
2019-02-02T04:11:51.724Z,34.58
2019-02-02T04:12:27.925Z,34.61
2019-02-02T04:13:03.883Z,34.64
2019-02-02T04:13:39.927Z,34.64
2019-02-02T04:14:15.966Z,34.64
2019-02-02T04:14:52.008Z,34.65
2019-02-02T04:15:28.114Z,34.71
2019-02-02T04:16:04.264Z,34.74
2019-02-02T04:16:40.244Z,34.78
2019-02-02T04:17:16.283Z,34.84
2019-02-02T04:17:52.827Z,34.89
2019-02-02T04:18:28.927Z,34.94
2019-02-02T04:19:05.096Z,34.99
2019-02-02T04:19:41.311Z,35.06
2019-02-02T04:20:19.410Z,35.07
2019-02-02T04:20:55.500Z,35.16
2019-02-02T04:21:31.537Z,35.24
2019-02-02T04:22:07.752Z,35.27
2019-02-02T04:22:43.893Z,35.32
2019-02-02T04:23:20.078Z,35.32
2019-02-02T04:23:56.165Z,35.35
2019-02-02T04:24:32.149Z,35.38
2019-02-02T04:25:08.668Z,35.39
2019-02-02T04:25:44.874Z,35.41
2019-02-02T04:26:21.031Z,35.43
2019-02-02T04:26:57.085Z,35.47
2019-02-02T04:27:33.065Z,35.49
2019-02-02T04:28:09.184Z,35.51
2019-02-02T04:28:45.351Z,35.45
2019-02-02T04:29:21.572Z,35.39
2019-02-02T04:29:57.695Z,35.34
2019-02-02T04:30:33.824Z,35.27
2019-02-02T04:31:11.678Z,35.17
2019-02-02T04:31:47.891Z,35.08
2019-02-02T04:32:24.123Z,35.00
2019-02-02T04:33:00.279Z,34.97
2019-02-02T04:33:36.385Z,34.97
2019-02-02T04:34:12.624Z,34.96
2019-02-02T04:34:48.613Z,34.97
2019-02-02T04:35:24.741Z,34.97
2019-02-02T04:36:00.793Z,34.94
2019-02-02T04:36:37.010Z,34.92
2019-02-02T04:37:13.219Z,34.85
2019-02-02T04:37:49.195Z,34.87
2019-02-02T04:38:25.343Z,34.87
2019-02-02T04:39:01.611Z,34.79
2019-02-02T04:39:37.746Z,34.81
2019-02-02T04:40:14.520Z,34.85
2019-02-02T04:40:50.756Z,34.91
2019-02-02T04:41:26.764Z,34.92
2019-02-02T04:42:02.770Z,34.94
2019-02-02T04:42:38.864Z,34.89
2019-02-02T04:43:15.029Z,34.88
2019-02-02T04:43:51.037Z,34.91
2019-02-02T04:44:27.164Z,34.90
2019-02-02T04:45:03.259Z,34.88
2019-02-02T04:45:39.451Z,34.86
2019-02-02T04:46:15.556Z,34.84
2019-02-02T04:46:51.566Z,34.85
2019-02-02T04:47:27.725Z,34.84
2019-02-02T04:48:04.007Z,34.84
2019-02-02T04:48:40.150Z,34.81
2019-02-02T04:49:16.238Z,34.83
2019-02-02T04:49:52.181Z,34.87
2019-02-02T04:50:28.367Z,34.90
2019-02-02T04:51:04.602Z,34.95
2019-02-02T04:51:40.643Z,34.96
2019-02-02T04:52:16.710Z,35.00
2019-02-02T04:52:52.671Z,35.00
2019-02-02T04:53:28.637Z,35.02
2019-02-02T04:54:04.658Z,35.04
2019-02-02T04:54:40.673Z,35.08
2019-02-02T04:55:17.968Z,35.07
2019-02-02T04:55:53.993Z,35.11
2019-02-02T04:56:30.107Z,35.14
2019-02-02T04:57:06.218Z,35.18
2019-02-02T04:57:42.293Z,35.23
2019-02-02T04:58:18.543Z,35.22
2019-02-02T04:58:54.583Z,35.23
2019-02-02T04:59:30.645Z,35.19
2019-02-02T05:00:08.350Z,35.18
2019-02-02T05:00:44.618Z,35.17
2019-02-02T05:01:20.749Z,35.16
2019-02-02T05:01:56.993Z,35.16
2019-02-02T05:02:33.113Z,35.17
2019-02-02T05:03:09.311Z,35.19
2019-02-02T05:03:45.387Z,35.21
2019-02-02T05:04:21.384Z,35.17
2019-02-02T05:04:57.306Z,35.17
2019-02-02T05:05:33.343Z,35.16
2019-02-02T05:06:09.614Z,35.15
2019-02-02T05:06:45.699Z,35.10
2019-02-02T05:07:21.683Z,35.06
2019-02-02T05:07:57.829Z,35.03
2019-02-02T05:08:33.933Z,35.00
2019-02-02T05:09:10.716Z,34.98
2019-02-02T05:09:46.711Z,34.96
2019-02-02T05:10:23.361Z,34.96
2019-02-02T05:10:59.328Z,34.96
2019-02-02T05:11:35.386Z,34.93
2019-02-02T05:12:11.340Z,34.91
2019-02-02T05:12:47.373Z,34.84
2019-02-02T05:13:23.476Z,34.83
2019-02-02T05:13:59.505Z,34.81
2019-02-02T05:14:35.722Z,34.78
2019-02-02T05:15:11.879Z,34.74
2019-02-02T05:15:47.846Z,34.76
2019-02-02T05:16:24.134Z,34.78
2019-02-02T05:17:00.296Z,34.78
2019-02-02T05:17:37.034Z,34.76
2019-02-02T05:18:13.188Z,34.78
2019-02-02T05:18:49.420Z,34.77
2019-02-02T05:19:25.443Z,34.76
2019-02-02T05:20:01.732Z,34.75
2019-02-02T05:20:37.976Z,34.77
2019-02-02T05:21:14.005Z,34.82
2019-02-02T05:21:50.377Z,34.87
2019-02-02T05:22:26.469Z,34.88
2019-02-02T05:23:02.519Z,34.90
2019-02-02T05:23:38.698Z,34.91
2019-02-02T05:24:14.685Z,34.94
2019-02-02T05:24:50.710Z,34.97
2019-02-02T05:25:26.697Z,35.00
2019-02-02T05:26:02.662Z,35.04
2019-02-02T05:26:38.699Z,35.05
2019-02-02T05:27:14.888Z,35.10
2019-02-02T05:27:50.958Z,35.13
2019-02-02T05:28:27.039Z,35.15
2019-02-02T05:29:03.186Z,35.17
2019-02-02T05:29:41.603Z,35.18
2019-02-02T05:30:25.303Z,35.22
2019-02-02T05:31:01.552Z,35.24
2019-02-02T05:31:38.103Z,35.29
2019-02-02T05:32:14.277Z,35.27
2019-02-02T05:32:50.282Z,35.31
2019-02-02T05:33:26.247Z,35.36
2019-02-02T05:34:02.301Z,35.41
2019-02-02T05:34:38.407Z,35.46
2019-02-02T05:35:14.573Z,35.52
2019-02-02T05:35:50.651Z,35.59
2019-02-02T05:36:26.599Z,35.64
2019-02-02T05:37:02.632Z,35.71
2019-02-02T05:37:38.768Z,35.78
2019-02-02T05:38:14.933Z,35.79
2019-02-02T05:38:50.918Z,35.85
2019-02-02T05:39:27.027Z,35.82
2019-02-02T05:40:03.249Z,35.80
2019-02-02T05:40:39.420Z,35.81
2019-02-02T05:41:15.676Z,35.80
2019-02-02T05:41:51.892Z,35.86
2019-02-02T05:42:27.887Z,35.80
2019-02-02T05:43:04.061Z,35.76
2019-02-02T05:43:40.085Z,35.71
2019-02-02T05:44:16.018Z,35.71
2019-02-02T05:44:52.203Z,35.66
2019-02-02T05:45:28.363Z,35.66
2019-02-02T05:46:04.461Z,35.69
2019-02-02T05:46:40.735Z,35.66
2019-02-02T05:47:16.794Z,35.67
2019-02-02T05:47:52.935Z,35.66
2019-02-02T05:48:29.164Z,35.69
2019-02-02T05:49:05.340Z,35.69
2019-02-02T05:49:41.390Z,35.66
2019-02-02T05:50:19.449Z,35.62
2019-02-02T05:50:55.534Z,35.60
2019-02-02T05:51:31.777Z,35.63
2019-02-02T05:52:08.024Z,35.65
2019-02-02T05:52:44.151Z,35.65
2019-02-02T05:53:20.287Z,35.69
2019-02-02T05:53:56.266Z,35.73
2019-02-02T05:54:32.207Z,35.74
2019-02-02T05:55:09.631Z,35.72
2019-02-02T05:55:45.633Z,35.77
2019-02-02T05:56:21.773Z,35.84
2019-02-02T05:56:58.035Z,35.82
2019-02-02T05:57:34.396Z,35.80
2019-02-02T05:58:10.552Z,35.76
2019-02-02T05:58:46.549Z,35.76
2019-02-02T05:59:22.817Z,35.83
2019-02-02T05:59:58.830Z,35.90
2019-02-02T06:00:43.867Z,35.96
2019-02-02T06:01:20.505Z,36.04
2019-02-02T06:01:56.442Z,36.07
2019-02-02T06:02:32.450Z,36.12
2019-02-02T06:03:08.490Z,36.17
2019-02-02T06:03:44.481Z,36.19
2019-02-02T06:04:20.464Z,36.25
2019-02-02T06:04:56.518Z,36.27
2019-02-02T06:05:32.719Z,36.27
2019-02-02T06:06:08.695Z,36.23
2019-02-02T06:06:44.861Z,36.20
2019-02-02T06:07:21.167Z,36.23
2019-02-02T06:07:57.187Z,36.24
2019-02-02T06:08:33.274Z,36.25
2019-02-02T06:09:10.236Z,36.31
2019-02-02T06:09:46.276Z,36.31
2019-02-02T06:10:22.466Z,36.36
2019-02-02T06:10:58.481Z,36.37
2019-02-02T06:11:34.685Z,36.35
2019-02-02T06:12:11.252Z,36.36
2019-02-02T06:12:47.360Z,36.39
2019-02-02T06:13:23.432Z,36.41
2019-02-02T06:13:59.641Z,36.39
2019-02-02T06:14:35.748Z,36.38
2019-02-02T06:15:12.094Z,36.36
2019-02-02T06:15:48.293Z,36.38
2019-02-02T06:16:24.410Z,36.37
2019-02-02T06:17:00.481Z,36.36
2019-02-02T06:17:36.585Z,36.38
2019-02-02T06:18:12.858Z,36.39
2019-02-02T06:18:48.987Z,36.40
2019-02-02T06:19:24.983Z,36.41
2019-02-02T06:20:01.210Z,36.42
2019-02-02T06:20:37.384Z,36.40
2019-02-02T06:21:13.654Z,36.40
2019-02-02T06:21:49.980Z,36.42
2019-02-02T06:22:26.199Z,36.44
2019-02-02T06:23:02.350Z,36.48
2019-02-02T06:23:38.630Z,36.49
2019-02-02T06:24:14.751Z,36.49
2019-02-02T06:24:52.755Z,36.53
2019-02-02T06:25:28.979Z,36.53
2019-02-02T06:26:05.108Z,36.52
2019-02-02T06:26:41.333Z,36.47
2019-02-02T06:27:17.287Z,36.46
2019-02-02T06:27:53.307Z,36.46
2019-02-02T06:28:29.290Z,36.45
2019-02-02T06:29:05.499Z,36.42
2019-02-02T06:29:41.571Z,36.39
2019-02-02T06:30:19.075Z,36.41
2019-02-02T06:30:55.370Z,36.44
2019-02-02T06:31:31.567Z,36.42
2019-02-02T06:32:11.816Z,36.32
2019-02-02T06:32:45.440Z,36.25
2019-02-02T06:33:21.664Z,36.20
2019-02-02T06:33:57.793Z,36.16
2019-02-02T06:34:33.986Z,36.19
2019-02-02T06:35:11.710Z,36.14
2019-02-02T06:35:47.780Z,36.20
2019-02-02T06:36:23.866Z,36.24
2019-02-02T06:37:00.201Z,36.27
2019-02-02T06:37:36.231Z,36.32
2019-02-02T06:38:12.320Z,36.38
2019-02-02T06:38:48.551Z,36.38
2019-02-02T06:39:24.617Z,36.43
2019-02-02T06:40:00.884Z,36.45
2019-02-02T06:40:37.184Z,36.48
2019-02-02T06:41:13.616Z,36.42
2019-02-02T06:41:49.776Z,36.35
2019-02-02T06:42:25.887Z,36.28
2019-02-02T06:43:01.889Z,36.20
2019-02-02T06:43:38.034Z,36.16
2019-02-02T06:44:14.362Z,36.13
2019-02-02T06:44:50.473Z,36.13
2019-02-02T06:45:29.078Z,36.12
2019-02-02T06:46:05.220Z,36.10
2019-02-02T06:46:43.617Z,36.13
2019-02-02T06:47:19.232Z,36.13
2019-02-02T06:47:57.053Z,36.15
2019-02-02T06:48:33.296Z,36.16
2019-02-02T06:49:09.544Z,36.12
2019-02-02T06:49:45.740Z,36.12
2019-02-02T06:50:21.851Z,36.09
2019-02-02T06:50:57.865Z,36.07
2019-02-02T06:51:33.975Z,36.07
2019-02-02T06:52:10.001Z,36.04
2019-02-02T06:52:46.146Z,36.02
2019-02-02T06:53:22.395Z,35.99
2019-02-02T06:53:58.490Z,35.96
2019-02-02T06:54:34.633Z,35.93
2019-02-02T06:55:11.479Z,35.92
2019-02-02T06:55:47.396Z,35.89
2019-02-02T06:56:23.642Z,35.89
2019-02-02T06:56:59.761Z,35.86
2019-02-02T06:57:35.816Z,35.85
2019-02-02T06:58:11.810Z,35.82
2019-02-02T06:58:48.054Z,35.80
2019-02-02T06:59:24.034Z,35.74
2019-02-02T07:00:00.017Z,35.69
2019-02-02T07:00:36.087Z,35.64
2019-02-02T07:01:12.382Z,35.57
2019-02-02T07:01:48.555Z,35.52
2019-02-02T07:02:24.631Z,35.50
2019-02-02T07:03:00.744Z,35.45
2019-02-02T07:03:36.883Z,35.41
2019-02-02T07:04:12.930Z,35.36
2019-02-02T07:04:49.053Z,35.30
2019-02-02T07:05:25.379Z,35.27
2019-02-02T07:06:01.464Z,35.23
2019-02-02T07:06:37.602Z,35.20
2019-02-02T07:07:13.617Z,35.18
2019-02-02T07:07:49.843Z,35.16
2019-02-02T07:08:25.859Z,35.12
2019-02-02T07:09:01.840Z,35.14
2019-02-02T07:09:37.926Z,35.12
2019-02-02T07:10:16.782Z,35.09
2019-02-02T07:10:52.792Z,35.06
2019-02-02T07:11:28.736Z,35.05
2019-02-02T07:12:04.690Z,35.05
2019-02-02T07:12:40.731Z,35.02
2019-02-02T07:13:16.613Z,34.97
2019-02-02T07:13:52.618Z,34.94
2019-02-02T07:14:28.661Z,34.92
2019-02-02T07:15:04.571Z,34.90
2019-02-02T07:15:40.504Z,34.90
2019-02-02T07:16:16.479Z,34.89
2019-02-02T07:16:52.470Z,34.88
2019-02-02T07:17:28.460Z,34.89
2019-02-02T07:18:04.426Z,34.89
2019-02-02T07:18:40.515Z,34.88
2019-02-02T07:19:16.710Z,34.88
2019-02-02T07:19:52.646Z,34.86
2019-02-02T07:20:28.694Z,34.86
2019-02-02T07:21:04.606Z,34.85
2019-02-02T07:21:40.669Z,34.84
2019-02-02T07:22:16.643Z,34.84
2019-02-02T07:22:52.709Z,34.84
2019-02-02T07:23:28.618Z,34.85
2019-02-02T07:24:04.555Z,34.85
2019-02-02T07:24:40.559Z,34.86
2019-02-02T07:25:16.753Z,34.86
2019-02-02T07:25:52.803Z,34.86
2019-02-02T07:26:28.903Z,34.87
2019-02-02T07:27:04.992Z,34.87
2019-02-02T07:27:41.064Z,34.84
2019-02-02T07:28:17.149Z,34.81
2019-02-02T07:28:53.204Z,34.78
2019-02-02T07:29:29.311Z,34.76
2019-02-02T07:30:06.292Z,34.73
2019-02-02T07:30:42.406Z,34.71
2019-02-02T07:31:18.528Z,34.69
2019-02-02T07:31:54.490Z,34.69
2019-02-02T07:32:30.495Z,34.69
2019-02-02T07:33:06.575Z,34.70
2019-02-02T07:33:42.610Z,34.73
2019-02-02T07:34:18.721Z,34.74
2019-02-02T07:34:54.886Z,34.75
2019-02-02T07:35:31.444Z,34.77
2019-02-02T07:36:07.496Z,34.79
2019-02-02T07:36:43.432Z,34.76
2019-02-02T07:37:19.566Z,34.76
2019-02-02T07:37:55.687Z,34.73
2019-02-02T07:38:31.807Z,34.71
2019-02-02T07:39:09.534Z,34.70
2019-02-02T07:39:45.542Z,34.68
2019-02-02T07:40:21.647Z,34.67
2019-02-02T07:40:57.848Z,34.66
2019-02-02T07:41:33.969Z,34.66
2019-02-02T07:42:10.170Z,34.65
2019-02-02T07:42:46.269Z,34.66
2019-02-02T07:43:22.244Z,34.66
2019-02-02T07:43:58.374Z,34.65
2019-02-02T07:44:34.455Z,34.64
2019-02-02T07:45:36.660Z,34.61
2019-02-02T07:46:14.996Z,34.60
2019-02-02T07:46:50.609Z,34.59
2019-02-02T07:47:26.715Z,34.55
2019-02-02T07:48:02.824Z,34.53